sensor_id;sensor_type;location;lat;lon;timestamp;P1;durP1;ratioP1;P2;durP2;ratioP2
75356;SDS011;63946;51.986;5.930;2023-05-02T05:07:27;2.63;;;1.67;;
75356;SDS011;63946;51.986;5.930;2023-05-02T05:09:57;3.97;;;1.25;;
75356;SDS011;63946;51.986;5.930;2023-05-02T05:12:29;4.35;;;1.63;;
75356;SDS011;63946;51.986;5.930;2023-05-02T05:15:01;4.05;;;1.33;;
75356;SDS011;63946;51.986;5.930;2023-05-02T05:17:31;5.20;;;1.52;;
75356;SDS011;63946;51.986;5.930;2023-05-02T05:20:02;7.93;;;1.67;;
75356;SDS011;63946;51.986;5.930;2023-05-02T05:22:37;2.70;;;1.40;;
75356;SDS011;63946;51.986;5.930;2023-05-02T05:25:07;4.85;;;1.75;;
75356;SDS011;63946;51.986;5.930;2023-05-02T05:27:37;5.30;;;1.35;;
75356;SDS011;63946;51.986;5.930;2023-05-02T05:30:09;7.15;;;1.70;;
75356;SDS011;63946;51.986;5.930;2023-05-02T05:32:40;4.65;;;1.23;;
75356;SDS011;63946;51.986;5.930;2023-05-02T05:35:12;7.97;;;1.85;;
75356;SDS011;63946;51.986;5.930;2023-05-02T05:37:41;5.15;;;1.88;;
75356;SDS011;63946;51.986;5.930;2023-05-02T05:40:13;8.40;;;1.70;;
75356;SDS011;63946;51.986;5.930;2023-05-02T05:42:45;8.60;;;1.73;;
75356;SDS011;63946;51.986;5.930;2023-05-02T05:45:22;7.25;;;2.10;;
75356;SDS011;63946;51.986;5.930;2023-05-02T05:47:52;8.40;;;1.67;;
75356;SDS011;63946;51.986;5.930;2023-05-02T05:50:30;9.75;;;2.40;;
75356;SDS011;63946;51.986;5.930;2023-05-02T05:53:01;5.25;;;1.88;;
75356;SDS011;63946;51.986;5.930;2023-05-02T05:55:31;5.55;;;1.95;;
75356;SDS011;63946;51.986;5.930;2023-05-02T05:58:00;8.07;;;2.03;;
75356;SDS011;63946;51.986;5.930;2023-05-02T06:00:37;6.68;;;1.90;;
75356;SDS011;63946;51.986;5.930;2023-05-02T06:03:06;6.05;;;1.80;;
75356;SDS011;63946;51.986;5.930;2023-05-02T06:05:36;8.13;;;1.70;;
75356;SDS011;63946;51.986;5.930;2023-05-02T06:08:07;7.82;;;2.45;;
75356;SDS011;63946;51.986;5.930;2023-05-02T06:10:36;10.43;;;2.53;;
75356;SDS011;63946;51.986;5.930;2023-05-02T06:13:05;7.88;;;1.83;;
75356;SDS011;63946;51.986;5.930;2023-05-02T06:15:40;8.18;;;2.58;;
75356;SDS011;63946;51.986;5.930;2023-05-02T06:18:09;7.70;;;2.40;;
75356;SDS011;63946;51.986;5.930;2023-05-02T06:20:42;6.60;;;2.20;;
75356;SDS011;63946;51.986;5.930;2023-05-02T06:23:11;6.43;;;3.13;;
75356;SDS011;63946;51.986;5.930;2023-05-02T06:25:40;9.60;;;2.60;;
75356;SDS011;63946;51.986;5.930;2023-05-02T06:28:08;11.10;;;3.03;;
75356;SDS011;63946;51.986;5.930;2023-05-02T06:30:37;8.40;;;2.38;;
75356;SDS011;63946;51.986;5.930;2023-05-02T06:33:18;10.02;;;2.60;;
75356;SDS011;63946;51.986;5.930;2023-05-02T06:35:50;10.35;;;2.17;;
75356;SDS011;63946;51.986;5.930;2023-05-02T06:38:22;12.60;;;3.00;;
75356;SDS011;63946;51.986;5.930;2023-05-02T06:40:51;10.07;;;2.60;;
75356;SDS011;63946;51.986;5.930;2023-05-02T06:43:20;8.10;;;2.47;;
75356;SDS011;63946;51.986;5.930;2023-05-02T06:48:23;10.77;;;2.50;;
75356;SDS011;63946;51.986;5.930;2023-05-02T06:50:52;9.40;;;2.47;;
75356;SDS011;63946;51.986;5.930;2023-05-02T06:53:24;8.32;;;2.72;;
75356;SDS011;63946;51.986;5.930;2023-05-02T06:56:08;9.10;;;2.80;;
75356;SDS011;63946;51.986;5.930;2023-05-02T06:58:37;8.93;;;2.40;;
75356;SDS011;63946;51.986;5.930;2023-05-02T07:01:12;8.95;;;3.50;;
75356;SDS011;63946;51.986;5.930;2023-05-02T07:03:46;8.50;;;2.30;;
75356;SDS011;63946;51.986;5.930;2023-05-02T07:06:18;7.35;;;2.45;;
75356;SDS011;63946;51.986;5.930;2023-05-02T07:08:50;5.75;;;2.00;;
75356;SDS011;63946;51.986;5.930;2023-05-02T07:11:24;5.65;;;2.25;;
75356;SDS011;63946;51.986;5.930;2023-05-02T07:13:53;6.78;;;1.90;;
75356;SDS011;63946;51.986;5.930;2023-05-02T07:16:27;7.15;;;1.70;;
75356;SDS011;63946;51.986;5.930;2023-05-02T07:19:01;8.02;;;2.40;;
75356;SDS011;63946;51.986;5.930;2023-05-02T07:21:31;8.05;;;2.25;;
75356;SDS011;63946;51.986;5.930;2023-05-02T07:24:08;8.07;;;2.15;;
75356;SDS011;63946;51.986;5.930;2023-05-02T07:26:37;6.93;;;2.13;;
75356;SDS011;63946;51.986;5.930;2023-05-02T07:29:18;7.55;;;1.85;;
75356;SDS011;63946;51.986;5.930;2023-05-02T07:31:50;6.90;;;2.10;;
75356;SDS011;63946;51.986;5.930;2023-05-02T07:34:34;7.13;;;2.15;;
75356;SDS011;63946;51.986;5.930;2023-05-02T07:37:05;6.70;;;2.05;;
75356;SDS011;63946;51.986;5.930;2023-05-02T07:39:50;5.40;;;1.77;;
75356;SDS011;63946;51.986;5.930;2023-05-02T07:42:32;6.10;;;2.10;;
75356;SDS011;63946;51.986;5.930;2023-05-02T07:45:11;4.60;;;1.65;;
75356;SDS011;63946;51.986;5.930;2023-05-02T07:47:44;6.18;;;2.25;;
75356;SDS011;63946;51.986;5.930;2023-05-02T07:50:14;6.65;;;1.70;;
75356;SDS011;63946;51.986;5.930;2023-05-02T07:52:45;4.30;;;1.63;;
75356;SDS011;63946;51.986;5.930;2023-05-02T07:55:18;12.55;;;2.35;;
75356;SDS011;63946;51.986;5.930;2023-05-02T07:57:47;7.10;;;2.05;;
75356;SDS011;63946;51.986;5.930;2023-05-02T08:00:21;7.22;;;2.08;;
75356;SDS011;63946;51.986;5.930;2023-05-02T08:02:58;9.60;;;1.92;;
75356;SDS011;63946;51.986;5.930;2023-05-02T08:05:32;7.45;;;2.28;;
75356;SDS011;63946;51.986;5.930;2023-05-02T08:08:05;6.85;;;2.60;;
75356;SDS011;63946;51.986;5.930;2023-05-02T08:10:34;7.10;;;1.98;;
75356;SDS011;63946;51.986;5.930;2023-05-02T08:13:10;11.05;;;2.60;;
75356;SDS011;63946;51.986;5.930;2023-05-02T08:15:43;9.10;;;1.92;;
75356;SDS011;63946;51.986;5.930;2023-05-02T08:18:20;7.88;;;1.95;;
75356;SDS011;63946;51.986;5.930;2023-05-02T08:20:51;4.70;;;1.58;;
75356;SDS011;63946;51.986;5.930;2023-05-02T08:23:20;7.38;;;1.88;;
75356;SDS011;63946;51.986;5.930;2023-05-02T08:25:58;6.70;;;1.90;;
75356;SDS011;63946;51.986;5.930;2023-05-02T08:28:34;7.43;;;1.70;;
75356;SDS011;63946;51.986;5.930;2023-05-02T08:31:07;6.55;;;1.63;;
75356;SDS011;63946;51.986;5.930;2023-05-02T08:33:36;6.82;;;1.52;;
75356;SDS011;63946;51.986;5.930;2023-05-02T08:36:09;6.03;;;1.83;;
75356;SDS011;63946;51.986;5.930;2023-05-02T08:39:01;9.13;;;1.92;;
75356;SDS011;63946;51.986;5.930;2023-05-02T08:41:32;4.72;;;1.55;;
75356;SDS011;63946;51.986;5.930;2023-05-02T08:44:05;4.20;;;1.77;;
75356;SDS011;63946;51.986;5.930;2023-05-02T08:46:39;5.13;;;1.50;;
75356;SDS011;63946;51.986;5.930;2023-05-02T08:49:20;4.00;;;1.40;;
75356;SDS011;63946;51.986;5.930;2023-05-02T08:51:54;5.05;;;1.40;;
75356;SDS011;63946;51.986;5.930;2023-05-02T08:54:30;3.00;;;1.33;;
75356;SDS011;63946;51.986;5.930;2023-05-02T08:57:02;5.18;;;1.67;;
75356;SDS011;63946;51.986;5.930;2023-05-02T08:59:35;4.68;;;1.20;;
75356;SDS011;63946;51.986;5.930;2023-05-02T09:02:22;2.85;;;1.05;;
75356;SDS011;63946;51.986;5.930;2023-05-02T09:05:10;6.05;;;1.35;;
75356;SDS011;63946;51.986;5.930;2023-05-02T09:07:45;3.30;;;1.27;;
75356;SDS011;63946;51.986;5.930;2023-05-02T09:10:20;4.72;;;1.63;;
75356;SDS011;63946;51.986;5.930;2023-05-02T09:12:50;5.85;;;1.50;;
75356;SDS011;63946;51.986;5.930;2023-05-02T09:15:25;5.32;;;1.90;;
75356;SDS011;63946;51.986;5.930;2023-05-02T09:18:02;4.72;;;1.65;;
75356;SDS011;63946;51.986;5.930;2023-05-02T09:20:38;3.13;;;1.42;;
75356;SDS011;63946;51.986;5.930;2023-05-02T09:23:11;3.45;;;1.38;;
75356;SDS011;63946;51.986;5.930;2023-05-02T09:25:41;4.97;;;1.52;;
75356;SDS011;63946;51.986;5.930;2023-05-02T09:28:13;5.60;;;1.48;;
75356;SDS011;63946;51.986;5.930;2023-05-02T09:30:46;3.20;;;1.27;;
75356;SDS011;63946;51.986;5.930;2023-05-02T09:33:28;6.88;;;1.60;;
75356;SDS011;63946;51.986;5.930;2023-05-02T09:36:00;3.78;;;1.35;;
75356;SDS011;63946;51.986;5.930;2023-05-02T09:38:31;5.47;;;2.00;;
75356;SDS011;63946;51.986;5.930;2023-05-02T09:41:04;3.78;;;1.23;;
75356;SDS011;63946;51.986;5.930;2023-05-02T09:43:53;3.72;;;1.35;;
75356;SDS011;63946;51.986;5.930;2023-05-02T09:46:25;3.10;;;1.40;;
75356;SDS011;63946;51.986;5.930;2023-05-02T09:49:14;2.70;;;1.20;;
75356;SDS011;63946;51.986;5.930;2023-05-02T09:51:48;3.75;;;1.08;;
75356;SDS011;63946;51.986;5.930;2023-05-02T09:54:33;6.10;;;1.70;;
75356;SDS011;63946;51.986;5.930;2023-05-02T09:57:06;5.07;;;1.55;;
75356;SDS011;63946;51.986;5.930;2023-05-02T09:59:51;3.35;;;1.35;;
75356;SDS011;63946;51.986;5.930;2023-05-02T10:02:24;3.15;;;1.15;;
75356;SDS011;63946;51.986;5.930;2023-05-02T10:04:56;4.53;;;1.55;;
75356;SDS011;63946;51.986;5.930;2023-05-02T10:07:25;3.25;;;1.58;;
75356;SDS011;63946;51.986;5.930;2023-05-02T10:09:57;4.78;;;1.60;;
75356;SDS011;63946;51.986;5.930;2023-05-02T10:12:37;4.10;;;1.45;;
75356;SDS011;63946;51.986;5.930;2023-05-02T10:15:10;2.20;;;1.25;;
75356;SDS011;63946;51.986;5.930;2023-05-02T10:17:48;1.60;;;1.13;;
75356;SDS011;63946;51.986;5.930;2023-05-02T10:20:24;3.58;;;1.65;;
75356;SDS011;63946;51.986;5.930;2023-05-02T10:23:02;2.55;;;1.33;;
75356;SDS011;63946;51.986;5.930;2023-05-02T10:25:33;3.60;;;1.30;;
75356;SDS011;63946;51.986;5.930;2023-05-02T10:28:03;5.60;;;1.30;;
75356;SDS011;63946;51.986;5.930;2023-05-02T10:30:35;3.80;;;1.65;;
75356;SDS011;63946;51.986;5.930;2023-05-02T10:33:05;2.78;;;1.48;;
75356;SDS011;63946;51.986;5.930;2023-05-02T10:35:42;5.10;;;1.73;;
75356;SDS011;63946;51.986;5.930;2023-05-02T10:38:18;4.57;;;2.25;;
75356;SDS011;63946;51.986;5.930;2023-05-02T10:44:06;4.78;;;1.42;;
75356;SDS011;63946;51.986;5.930;2023-05-02T10:47:22;4.80;;;1.73;;
75356;SDS011;63946;51.986;5.930;2023-05-02T10:49:55;4.55;;;1.60;;
75356;SDS011;63946;51.986;5.930;2023-05-02T10:52:34;2.65;;;1.45;;
75356;SDS011;63946;51.986;5.930;2023-05-02T10:55:19;3.50;;;1.52;;
75356;SDS011;63946;51.986;5.930;2023-05-02T11:00:36;4.47;;;1.30;;
75356;SDS011;63946;51.986;5.930;2023-05-02T11:03:05;4.50;;;1.65;;
75356;SDS011;63946;51.986;5.930;2023-05-02T11:06:03;7.35;;;1.80;;
75356;SDS011;63946;51.986;5.930;2023-05-02T11:08:39;3.20;;;1.50;;
75356;SDS011;63946;51.986;5.930;2023-05-02T11:11:55;4.93;;;2.08;;
75356;SDS011;63946;51.986;5.930;2023-05-02T11:14:42;3.05;;;1.27;;
75356;SDS011;63946;51.986;5.930;2023-05-02T11:17:26;4.93;;;1.70;;
75356;SDS011;63946;51.986;5.930;2023-05-02T11:22:32;5.13;;;1.65;;
75356;SDS011;63946;51.986;5.930;2023-05-02T11:25:34;5.30;;;1.60;;
75356;SDS011;63946;51.986;5.930;2023-05-02T11:28:05;7.00;;;2.08;;
75356;SDS011;63946;51.986;5.930;2023-05-02T11:30:39;6.72;;;2.08;;
75356;SDS011;63946;51.986;5.930;2023-05-02T11:35:37;4.20;;;1.70;;
75356;SDS011;63946;51.986;5.930;2023-05-02T11:38:12;9.30;;;2.85;;
75356;SDS011;63946;51.986;5.930;2023-05-02T11:40:53;6.05;;;1.80;;
75356;SDS011;63946;51.986;5.930;2023-05-02T11:43:36;4.85;;;1.42;;
75356;SDS011;63946;51.986;5.930;2023-05-02T11:46:07;4.78;;;1.30;;
75356;SDS011;63946;51.986;5.930;2023-05-02T11:48:45;2.88;;;1.40;;
75356;SDS011;63946;51.986;5.930;2023-05-02T11:51:21;4.72;;;1.60;;
75356;SDS011;63946;51.986;5.930;2023-05-02T11:54:02;4.22;;;1.75;;
75356;SDS011;63946;51.986;5.930;2023-05-02T11:59:06;5.22;;;1.83;;
75356;SDS011;63946;51.986;5.930;2023-05-02T12:01:46;5.18;;;1.75;;
75356;SDS011;63946;51.986;5.930;2023-05-02T12:04:20;7.07;;;2.33;;
75356;SDS011;63946;51.986;5.930;2023-05-02T12:06:56;5.50;;;1.50;;
75356;SDS011;63946;51.986;5.930;2023-05-02T12:09:25;8.25;;;2.28;;
75356;SDS011;63946;51.986;5.930;2023-05-02T12:11:56;8.23;;;2.67;;
75356;SDS011;63946;51.986;5.930;2023-05-02T12:14:28;7.78;;;2.38;;
75356;SDS011;63946;51.986;5.930;2023-05-02T12:17:02;5.90;;;1.73;;
75356;SDS011;63946;51.986;5.930;2023-05-02T12:19:31;4.50;;;1.85;;
75356;SDS011;63946;51.986;5.930;2023-05-02T12:22:09;7.90;;;2.00;;
75356;SDS011;63946;51.986;5.930;2023-05-02T12:24:40;3.03;;;1.70;;
75356;SDS011;63946;51.986;5.930;2023-05-02T12:27:14;4.10;;;1.75;;
75356;SDS011;63946;51.986;5.930;2023-05-02T12:29:45;6.03;;;1.80;;
75356;SDS011;63946;51.986;5.930;2023-05-02T12:32:26;6.80;;;2.50;;
75356;SDS011;63946;51.986;5.930;2023-05-02T12:34:57;5.40;;;1.75;;
75356;SDS011;63946;51.986;5.930;2023-05-02T12:37:27;6.28;;;2.17;;
75356;SDS011;63946;51.986;5.930;2023-05-02T12:39:58;7.53;;;2.10;;
75356;SDS011;63946;51.986;5.930;2023-05-02T12:42:33;4.97;;;1.90;;
75356;SDS011;63946;51.986;5.930;2023-05-02T12:45:04;4.95;;;1.90;;
75356;SDS011;63946;51.986;5.930;2023-05-02T12:48:01;6.70;;;1.85;;
75356;SDS011;63946;51.986;5.930;2023-05-02T12:50:48;4.68;;;1.90;;
75356;SDS011;63946;51.986;5.930;2023-05-02T12:53:36;8.55;;;3.42;;
75356;SDS011;63946;51.986;5.930;2023-05-02T12:56:12;6.55;;;2.47;;
75356;SDS011;63946;51.986;5.930;2023-05-02T12:58:45;7.78;;;2.60;;
75356;SDS011;63946;51.986;5.930;2023-05-02T13:01:18;7.32;;;2.33;;
75356;SDS011;63946;51.986;5.930;2023-05-02T13:04:04;8.43;;;2.25;;
75356;SDS011;63946;51.986;5.930;2023-05-02T13:06:36;6.38;;;2.63;;
75356;SDS011;63946;51.986;5.930;2023-05-02T13:09:05;5.13;;;2.08;;
75356;SDS011;63946;51.986;5.930;2023-05-02T13:11:43;6.97;;;2.40;;
75356;SDS011;63946;51.986;5.930;2023-05-02T13:14:18;6.25;;;2.13;;
75356;SDS011;63946;51.986;5.930;2023-05-02T13:16:52;6.72;;;2.58;;
75356;SDS011;63946;51.986;5.930;2023-05-02T13:19:36;5.32;;;2.40;;
75356;SDS011;63946;51.986;5.930;2023-05-02T13:22:05;5.38;;;2.78;;
75356;SDS011;63946;51.986;5.930;2023-05-02T13:27:07;4.20;;;1.83;;
75356;SDS011;63946;51.986;5.930;2023-05-02T13:29:39;8.35;;;2.47;;
75356;SDS011;63946;51.986;5.930;2023-05-02T13:32:11;8.20;;;2.22;;
75356;SDS011;63946;51.986;5.930;2023-05-02T13:34:41;7.45;;;2.17;;
75356;SDS011;63946;51.986;5.930;2023-05-02T13:37:13;7.03;;;2.20;;
75356;SDS011;63946;51.986;5.930;2023-05-02T13:39:47;9.00;;;2.55;;
75356;SDS011;63946;51.986;5.930;2023-05-02T13:42:16;5.45;;;2.17;;
75356;SDS011;63946;51.986;5.930;2023-05-02T13:44:45;6.60;;;2.72;;
75356;SDS011;63946;51.986;5.930;2023-05-02T13:47:18;6.38;;;1.88;;
75356;SDS011;63946;51.986;5.930;2023-05-02T13:49:50;4.70;;;1.92;;
75356;SDS011;63946;51.986;5.930;2023-05-02T13:52:20;7.60;;;2.22;;
75356;SDS011;63946;51.986;5.930;2023-05-02T13:54:49;8.80;;;2.53;;
75356;SDS011;63946;51.986;5.930;2023-05-02T13:57:19;5.97;;;3.10;;
75356;SDS011;63946;51.986;5.930;2023-05-02T13:59:48;11.30;;;2.72;;
75356;SDS011;63946;51.986;5.930;2023-05-02T14:02:20;6.15;;;2.50;;
75356;SDS011;63946;51.986;5.930;2023-05-02T14:04:55;4.65;;;2.25;;
75356;SDS011;63946;51.986;5.930;2023-05-02T14:07:26;5.90;;;2.28;;
75356;SDS011;63946;51.986;5.930;2023-05-02T14:09:57;5.82;;;2.10;;
75356;SDS011;63946;51.986;5.930;2023-05-02T14:12:28;5.40;;;2.50;;
75356;SDS011;63946;51.986;5.930;2023-05-02T14:15:00;7.85;;;3.03;;
75356;SDS011;63946;51.986;5.930;2023-05-02T14:17:29;5.85;;;2.60;;
75356;SDS011;63946;51.986;5.930;2023-05-02T14:20:00;6.97;;;2.33;;
75356;SDS011;63946;51.986;5.930;2023-05-02T14:22:35;4.60;;;2.10;;
75356;SDS011;63946;51.986;5.930;2023-05-02T14:25:07;5.45;;;2.60;;
75356;SDS011;63946;51.986;5.930;2023-05-02T14:27:38;6.00;;;2.25;;
75356;SDS011;63946;51.986;5.930;2023-05-02T14:30:10;7.50;;;3.00;;
75356;SDS011;63946;51.986;5.930;2023-05-02T14:32:42;10.18;;;3.00;;
75356;SDS011;63946;51.986;5.930;2023-05-02T14:35:14;5.95;;;2.58;;
75356;SDS011;63946;51.986;5.930;2023-05-02T14:37:43;5.43;;;2.40;;
75356;SDS011;63946;51.986;5.930;2023-05-02T14:40:13;9.38;;;2.30;;
75356;SDS011;63946;51.986;5.930;2023-05-02T14:42:45;9.57;;;2.35;;
75356;SDS011;63946;51.986;5.930;2023-05-02T14:45:17;6.50;;;2.80;;
75356;SDS011;63946;51.986;5.930;2023-05-02T14:47:49;8.27;;;3.10;;
75356;SDS011;63946;51.986;5.930;2023-05-02T14:50:26;6.10;;;2.20;;
75356;SDS011;63946;51.986;5.930;2023-05-02T14:52:55;5.68;;;2.60;;
75356;SDS011;63946;51.986;5.930;2023-05-02T14:55:26;5.28;;;2.65;;
75356;SDS011;63946;51.986;5.930;2023-05-02T14:58:05;8.32;;;2.75;;
75356;SDS011;63946;51.986;5.930;2023-05-02T15:00:40;7.82;;;2.78;;
75356;SDS011;63946;51.986;5.930;2023-05-02T15:03:09;5.43;;;2.30;;
75356;SDS011;63946;51.986;5.930;2023-05-02T15:05:38;6.10;;;2.13;;
75356;SDS011;63946;51.986;5.930;2023-05-02T15:08:12;7.20;;;2.53;;
75356;SDS011;63946;51.986;5.930;2023-05-02T15:10:43;6.63;;;1.90;;
75356;SDS011;63946;51.986;5.930;2023-05-02T15:13:12;6.70;;;1.98;;
75356;SDS011;63946;51.986;5.930;2023-05-02T15:15:51;5.55;;;2.38;;
75356;SDS011;63946;51.986;5.930;2023-05-02T15:18:23;4.35;;;1.95;;
75356;SDS011;63946;51.986;5.930;2023-05-02T15:20:56;5.63;;;2.45;;
75356;SDS011;63946;51.986;5.930;2023-05-02T15:23:26;4.60;;;2.05;;
75356;SDS011;63946;51.986;5.930;2023-05-02T15:25:59;4.25;;;2.17;;
75356;SDS011;63946;51.986;5.930;2023-05-02T15:28:47;6.70;;;2.42;;
75356;SDS011;63946;51.986;5.930;2023-05-02T15:31:18;5.38;;;2.42;;
75356;SDS011;63946;51.986;5.930;2023-05-02T15:33:47;8.38;;;2.92;;
75356;SDS011;63946;51.986;5.930;2023-05-02T15:36:18;4.78;;;2.17;;
75356;SDS011;63946;51.986;5.930;2023-05-02T15:38:50;7.53;;;2.60;;
75356;SDS011;63946;51.986;5.930;2023-05-02T15:41:21;4.10;;;1.98;;
75356;SDS011;63946;51.986;5.930;2023-05-02T15:43:52;4.20;;;2.00;;
75356;SDS011;63946;51.986;5.930;2023-05-02T15:46:31;6.13;;;2.58;;
75356;SDS011;63946;51.986;5.930;2023-05-02T15:49:03;5.30;;;2.05;;
75356;SDS011;63946;51.986;5.930;2023-05-02T15:51:35;4.50;;;1.95;;
75356;SDS011;63946;51.986;5.930;2023-05-02T15:54:10;3.05;;;1.58;;
75356;SDS011;63946;51.986;5.930;2023-05-02T15:56:43;6.50;;;2.58;;
75356;SDS011;63946;51.986;5.930;2023-05-02T15:59:21;6.80;;;2.65;;
75356;SDS011;63946;51.986;5.930;2023-05-02T16:01:55;7.43;;;2.00;;
75356;SDS011;63946;51.986;5.930;2023-05-02T16:04:36;6.75;;;1.60;;
75356;SDS011;63946;51.986;5.930;2023-05-02T16:07:05;6.53;;;2.20;;
75356;SDS011;63946;51.986;5.930;2023-05-02T16:09:38;3.30;;;1.77;;
75356;SDS011;63946;51.986;5.930;2023-05-02T16:12:08;6.70;;;2.17;;
75356;SDS011;63946;51.986;5.930;2023-05-02T16:14:41;4.47;;;1.92;;
75356;SDS011;63946;51.986;5.930;2023-05-02T16:17:13;4.32;;;1.60;;
75356;SDS011;63946;51.986;5.930;2023-05-02T16:19:46;4.85;;;1.58;;
75356;SDS011;63946;51.986;5.930;2023-05-02T16:22:15;3.20;;;1.98;;
75356;SDS011;63946;51.986;5.930;2023-05-02T16:24:48;3.42;;;2.08;;
75356;SDS011;63946;51.986;5.930;2023-05-02T16:27:17;4.90;;;2.70;;
75356;SDS011;63946;51.986;5.930;2023-05-02T16:30:03;4.18;;;1.95;;
75356;SDS011;63946;51.986;5.930;2023-05-02T16:32:35;5.20;;;2.15;;
75356;SDS011;63946;51.986;5.930;2023-05-02T16:35:11;4.18;;;2.05;;
75356;SDS011;63946;51.986;5.930;2023-05-02T16:40:24;3.53;;;2.10;;
75356;SDS011;63946;51.986;5.930;2023-05-02T16:42:55;4.13;;;1.80;;
75356;SDS011;63946;51.986;5.930;2023-05-02T16:45:24;3.05;;;1.85;;
75356;SDS011;63946;51.986;5.930;2023-05-02T16:47:54;3.47;;;1.80;;
75356;SDS011;63946;51.986;5.930;2023-05-02T16:50:23;4.07;;;2.00;;
75356;SDS011;63946;51.986;5.930;2023-05-02T16:52:55;4.20;;;2.10;;
75356;SDS011;63946;51.986;5.930;2023-05-02T16:55:33;2.92;;;2.03;;
75356;SDS011;63946;51.986;5.930;2023-05-02T16:58:05;4.20;;;1.83;;
75356;SDS011;63946;51.986;5.930;2023-05-02T17:00:38;5.45;;;2.00;;
75356;SDS011;63946;51.986;5.930;2023-05-02T17:03:07;2.92;;;1.55;;
75356;SDS011;63946;51.986;5.930;2023-05-02T17:05:40;4.00;;;1.88;;
75356;SDS011;63946;51.986;5.930;2023-05-02T17:08:17;4.25;;;1.75;;
75356;SDS011;63946;51.986;5.930;2023-05-02T17:10:47;5.18;;;2.00;;
75356;SDS011;63946;51.986;5.930;2023-05-02T17:13:20;4.50;;;1.90;;
75356;SDS011;63946;51.986;5.930;2023-05-02T17:15:51;3.95;;;1.60;;
75356;SDS011;63946;51.986;5.930;2023-05-02T17:18:20;4.43;;;1.80;;
75356;SDS011;63946;51.986;5.930;2023-05-02T17:20:52;3.30;;;1.70;;
75356;SDS011;63946;51.986;5.930;2023-05-02T17:23:26;3.60;;;1.80;;
75356;SDS011;63946;51.986;5.930;2023-05-02T17:25:57;4.35;;;1.85;;
75356;SDS011;63946;51.986;5.930;2023-05-02T17:28:28;3.78;;;1.67;;
75356;SDS011;63946;51.986;5.930;2023-05-02T17:31:03;3.17;;;1.63;;
75356;SDS011;63946;51.986;5.930;2023-05-02T17:33:44;2.67;;;1.42;;
75356;SDS011;63946;51.986;5.930;2023-05-02T17:36:15;4.15;;;1.75;;
75356;SDS011;63946;51.986;5.930;2023-05-02T17:39:07;4.22;;;1.70;;
75356;SDS011;63946;51.986;5.930;2023-05-02T17:41:43;2.92;;;1.75;;
75356;SDS011;63946;51.986;5.930;2023-05-02T17:44:15;3.15;;;1.50;;
75356;SDS011;63946;51.986;5.930;2023-05-02T17:46:52;5.15;;;1.85;;
75356;SDS011;63946;51.986;5.930;2023-05-02T17:49:29;3.65;;;1.45;;
75356;SDS011;63946;51.986;5.930;2023-05-02T17:51:58;5.03;;;2.05;;
75356;SDS011;63946;51.986;5.930;2023-05-02T17:57:12;2.83;;;2.00;;
75356;SDS011;63946;51.986;5.930;2023-05-02T17:59:46;4.80;;;1.80;;
75356;SDS011;63946;51.986;5.930;2023-05-02T18:02:19;3.95;;;1.48;;
75356;SDS011;63946;51.986;5.930;2023-05-02T18:04:51;5.32;;;1.88;;
75356;SDS011;63946;51.986;5.930;2023-05-02T18:07:20;6.43;;;2.05;;
75356;SDS011;63946;51.986;5.930;2023-05-02T18:09:55;4.65;;;1.67;;
75356;SDS011;63946;51.986;5.930;2023-05-02T18:12:31;3.75;;;1.77;;
75356;SDS011;63946;51.986;5.930;2023-05-02T18:15:00;3.95;;;1.30;;
75356;SDS011;63946;51.986;5.930;2023-05-02T18:17:30;2.63;;;1.50;;
75356;SDS011;63946;51.986;5.930;2023-05-02T18:19:59;3.45;;;1.30;;
75356;SDS011;63946;51.986;5.930;2023-05-02T18:22:35;8.35;;;1.65;;
75356;SDS011;63946;51.986;5.930;2023-05-02T18:25:05;3.45;;;2.10;;
75356;SDS011;63946;51.986;5.930;2023-05-02T18:27:39;3.50;;;1.30;;
75356;SDS011;63946;51.986;5.930;2023-05-02T18:30:14;2.97;;;1.30;;
75356;SDS011;63946;51.986;5.930;2023-05-02T18:32:45;3.45;;;1.67;;
75356;SDS011;63946;51.986;5.930;2023-05-02T18:35:14;3.03;;;1.63;;
75356;SDS011;63946;51.986;5.930;2023-05-02T18:37:47;4.97;;;1.63;;
75356;SDS011;63946;51.986;5.930;2023-05-02T18:40:17;4.03;;;1.30;;
75356;SDS011;63946;51.986;5.930;2023-05-02T18:42:46;2.35;;;1.05;;
75356;SDS011;63946;51.986;5.930;2023-05-02T18:45:14;3.03;;;1.35;;
75356;SDS011;63946;51.986;5.930;2023-05-02T18:47:44;3.80;;;1.50;;
75356;SDS011;63946;51.986;5.930;2023-05-02T18:50:17;4.97;;;1.73;;
75356;SDS011;63946;51.986;5.930;2023-05-02T18:52:53;2.70;;;1.25;;
75356;SDS011;63946;51.986;5.930;2023-05-02T18:55:27;3.08;;;1.23;;
75356;SDS011;63946;51.986;5.930;2023-05-02T18:57:56;5.07;;;1.40;;
75356;SDS011;63946;51.986;5.930;2023-05-02T19:00:25;6.22;;;1.60;;
75356;SDS011;63946;51.986;5.930;2023-05-02T19:02:55;4.30;;;1.30;;
75356;SDS011;63946;51.986;5.930;2023-05-02T19:05:27;3.03;;;1.38;;
75356;SDS011;63946;51.986;5.930;2023-05-02T19:08:01;3.47;;;1.40;;
75356;SDS011;63946;51.986;5.930;2023-05-02T19:10:34;2.75;;;1.52;;
75356;SDS011;63946;51.986;5.930;2023-05-02T19:13:04;3.00;;;1.35;;
75356;SDS011;63946;51.986;5.930;2023-05-02T19:15:41;1.85;;;0.98;;
75356;SDS011;63946;51.986;5.930;2023-05-02T19:18:12;4.82;;;1.23;;
75356;SDS011;63946;51.986;5.930;2023-05-02T19:20:45;2.90;;;1.10;;
75356;SDS011;63946;51.986;5.930;2023-05-02T19:23:31;2.13;;;1.02;;
75356;SDS011;63946;51.986;5.930;2023-05-02T19:26:00;2.55;;;1.00;;
75356;SDS011;63946;51.986;5.930;2023-05-02T19:28:31;2.28;;;0.90;;
75356;SDS011;63946;51.986;5.930;2023-05-02T19:31:00;3.60;;;1.10;;
75356;SDS011;63946;51.986;5.930;2023-05-02T19:33:42;2.78;;;1.30;;
75356;SDS011;63946;51.986;5.930;2023-05-02T19:36:19;3.88;;;0.80;;
75356;SDS011;63946;51.986;5.930;2023-05-02T19:38:53;3.20;;;1.30;;
75356;SDS011;63946;51.986;5.930;2023-05-02T19:41:25;2.63;;;1.20;;
75356;SDS011;63946;51.986;5.930;2023-05-02T19:43:54;1.52;;;0.90;;
75356;SDS011;63946;51.986;5.930;2023-05-02T19:46:25;3.85;;;1.05;;
75356;SDS011;63946;51.986;5.930;2023-05-02T19:48:54;2.40;;;1.00;;
75356;SDS011;63946;51.986;5.930;2023-05-02T19:51:28;4.95;;;1.25;;
75356;SDS011;63946;51.986;5.930;2023-05-02T19:53:59;2.17;;;1.17;;
75356;SDS011;63946;51.986;5.930;2023-05-02T19:56:31;1.58;;;1.05;;
75356;SDS011;63946;51.986;5.930;2023-05-02T19:59:02;2.28;;;1.13;;
75356;SDS011;63946;51.986;5.930;2023-05-02T20:01:36;3.35;;;0.90;;
75356;SDS011;63946;51.986;5.930;2023-05-02T20:04:11;4.50;;;1.27;;
75356;SDS011;63946;51.986;5.930;2023-05-02T20:06:40;1.70;;;0.90;;
75356;SDS011;63946;51.986;5.930;2023-05-02T20:09:15;1.77;;;0.95;;
75356;SDS011;63946;51.986;5.930;2023-05-02T20:11:51;3.42;;;1.27;;
75356;SDS011;63946;51.986;5.930;2023-05-02T20:14:23;2.40;;;1.10;;
75356;SDS011;63946;51.986;5.930;2023-05-02T20:16:52;4.43;;;1.30;;
75356;SDS011;63946;51.986;5.930;2023-05-02T20:19:24;2.13;;;1.08;;
75356;SDS011;63946;51.986;5.930;2023-05-02T20:21:56;3.35;;;0.98;;
75356;SDS011;63946;51.986;5.930;2023-05-02T20:24:28;2.67;;;1.10;;
75356;SDS011;63946;51.986;5.930;2023-05-02T20:26:59;2.17;;;1.20;;
75356;SDS011;63946;51.986;5.930;2023-05-02T20:29:43;3.10;;;1.13;;
75356;SDS011;63946;51.986;5.930;2023-05-02T20:32:16;2.78;;;1.17;;
75356;SDS011;63946;51.986;5.930;2023-05-02T20:34:46;2.65;;;1.42;;
75356;SDS011;63946;51.986;5.930;2023-05-02T20:37:15;3.78;;;1.20;;
75356;SDS011;63946;51.986;5.930;2023-05-02T20:39:44;3.85;;;1.55;;
75356;SDS011;63946;51.986;5.930;2023-05-02T20:42:17;4.20;;;1.30;;
75356;SDS011;63946;51.986;5.930;2023-05-02T20:45:02;3.67;;;1.50;;
